Time;durP1;ratioP1;P1;durP2;ratioP2;P2;SDS_P1;SDS_P2;PMS_P1;PMS_P2;Temp;Humidity;BMP_temperature;BMP_pressure;BME280_temperature;BME280_humidity;BME280_pressure;Samples;Min_cycle;Max_cycle;Signal;HPM_P1;HPM_P2
2023/04/27 00:00:37;;;;;;;;;8.00;8.00;;;;;15.23;52.71;101165.25;2087062;28;45650;-69
2023/04/27 00:01:37;;;;;;;;;7.50;7.50;;;;;15.24;52.95;101166.13;2082879;28;46854;-69
2023/04/27 00:02:38;;;;;;;;;6.00;6.00;;;;;15.24;53.27;101166.13;2094843;28;48020;-71
2023/04/27 00:03:40;;;;;;;;;7.33;6.00;;;;;15.24;52.85;101171.47;2086896;28;46608;-69
2023/04/27 00:04:40;;;;;;;;;10.00;9.00;;;;;15.23;53.16;101167.06;2086701;28;46018;-69
2023/04/27 00:05:41;;;;;;;;;9.00;9.00;;;;;15.23;53.33;101161.72;2087309;28;46791;-70
2023/04/27 00:06:42;;;;;;;;;12.67;11.67;;;;;15.24;53.54;101168.81;2087575;28;45593;-69
2023/04/27 00:07:42;;;;;;;;;16.00;14.00;;;;;15.24;53.47;101169.69;2087825;28;45787;-69
2023/04/27 00:08:42;;;;;;;;;13.00;13.00;;;;;15.23;53.52;101167.06;2087486;28;46485;-68
2023/04/27 00:09:43;;;;;;;;;15.00;15.00;;;;;15.24;53.01;101171.47;2087360;28;46359;-69
2023/04/27 00:10:43;;;;;;;;;15.00;14.00;;;;;15.23;53.12;101164.38;2087146;28;46582;-70
2023/04/27 00:11:43;;;;;;;;;20.25;16.00;;;;;15.23;53.78;101169.72;2087252;28;46198;-69
2023/04/27 00:12:44;;;;;;;;;16.00;15.25;;;;;15.23;53.59;101162.59;2087564;28;46535;-69
2023/04/27 00:13:44;;;;;;;;;44.25;38.00;;;;;15.22;53.77;101168.00;2088369;28;46711;-69
2023/04/27 00:14:45;;;;;;;;;37.50;34.00;;;;;15.22;53.76;101165.31;2087356;28;45880;-71
2023/04/27 00:15:45;;;;;;;;;63.00;51.50;;;;;15.22;53.91;101160.84;2087398;28;44927;-69
2023/04/27 00:16:46;;;;;;;;;110.25;99.25;;;;;15.24;53.70;101166.13;2087786;28;48045;-69
2023/04/27 00:17:47;;;;;;;;;133.00;128.75;;;;;15.24;54.32;101161.66;2084881;28;46625;-69
2023/04/27 00:18:47;;;;;;;;;89.67;81.33;;;;;15.25;53.84;101162.56;2087519;28;45550;-69
2023/04/27 00:19:48;;;;;;;;;63.50;51.00;;;;;15.25;54.23;101162.56;2088913;28;45448;-70
2023/04/27 00:20:48;;;;;;;;;65.50;54.00;;;;;15.23;53.85;101159.91;2088477;28;45230;-70
2023/04/27 00:21:49;;;;;;;;;63.50;50.75;;;;;15.25;54.10;101157.22;2094105;28;46208;-70
2023/04/27 00:22:49;;;;;;;;;55.00;44.50;;;;;15.25;53.82;101157.22;2092863;28;47537;-70
2023/04/27 00:23:49;;;;;;;;;47.00;40.50;;;;;15.26;53.85;101158.97;2088523;28;47142;-69
2023/04/27 00:24:50;;;;;;;;;39.50;34.50;;;;;15.28;54.06;101165.13;2088751;28;47113;-69
2023/04/27 00:25:50;;;;;;;;;26.25;25.75;;;;;15.27;54.07;101158.03;2088874;28;46517;-69
2023/04/27 00:26:50;;;;;;;;;30.50;29.00;;;;;15.27;53.86;101155.34;2095459;28;45587;-68
2023/04/27 00:27:51;;;;;;;;;20.00;18.50;;;;;15.26;53.95;101151.81;2092191;28;44933;-68
2023/04/27 00:28:51;;;;;;;;;14.00;14.00;;;;;15.28;53.89;101157.09;2095924;28;45922;-69
2023/04/27 00:29:52;;;;;;;;;13.00;13.00;;;;;15.27;53.31;101158.03;2088647;28;45069;-70
2023/04/27 00:30:53;;;;;;;;;17.50;14.00;;;;;15.28;53.69;101157.09;2088226;28;46894;-69
2023/04/27 00:31:53;;;;;;;;;12.60;10.80;;;;;15.28;53.79;101159.78;2087960;28;46249;-68
2023/04/27 00:32:54;;;;;;;;;12.00;12.00;;;;;15.27;53.88;101147.34;2090834;28;47717;-70
2023/04/27 00:33:54;;;;;;;;;11.00;10.67;;;;;15.26;53.87;101150.94;2095272;28;45634;-69
2023/04/27 00:34:55;;;;;;;;;11.00;10.25;;;;;15.26;53.84;101148.25;2080406;28;45712;-70
2023/04/27 00:35:59;;;;;;;;;9.75;9.75;;;;;15.27;53.61;101152.69;2079870;28;45830;-69
2023/04/27 00:37:00;;;;;;;;;8.50;8.50;;;;;15.24;53.66;101142.94;2088616;28;45997;-70
2023/04/27 00:38:00;;;;;;;;;10.67;9.33;;;;;15.26;53.78;101148.25;2088398;28;45991;-69
2023/04/27 00:39:02;;;;;;;;;12.00;10.67;;;;;15.24;54.18;101140.25;2088325;28;46128;-69
2023/04/27 00:40:06;;;;;;;;;10.25;10.00;;;;;15.23;53.77;101145.66;2088970;28;46526;-69
2023/04/27 00:41:07;;;;;;;;;5.75;5.50;;;;;15.22;54.18;101143.91;2089321;28;46735;-68
2023/04/27 00:42:12;;;;;;;;;10.00;9.00;;;;;15.21;54.41;101143.06;2093440;28;45812;-69
2023/04/27 00:43:12;;;;;;;;;8.25;8.25;;;;;15.20;54.37;101145.78;2089140;28;46406;-69
2023/04/27 00:44:12;;;;;;;;;8.50;8.50;;;;;15.20;53.69;101143.97;2088775;28;47427;-68
2023/04/27 00:45:13;;;;;;;;;9.75;9.75;;;;;15.18;54.37;101143.16;2088338;28;45991;-71
2023/04/27 00:46:14;;;;;;;;;10.00;10.00;;;;;15.17;54.31;101145.88;2095765;28;45946;-70
2023/04/27 00:47:16;;;;;;;;;9.00;7.75;;;;;15.17;54.10;101148.56;2099145;28;46136;-68
2023/04/27 00:48:16;;;;;;;;;8.75;8.75;;;;;15.14;54.37;101146.88;2096404;28;45743;-70
2023/04/27 00:49:17;;;;;;;;;10.00;9.00;;;;;15.14;54.48;101144.19;2088577;28;47249;-69
2023/04/27 00:50:26;;;;;;;;;12.00;12.00;;;;;15.13;54.26;101136.25;2088220;28;46542;-68
2023/04/27 00:51:28;;;;;;;;;9.60;9.40;;;;;15.11;54.59;101141.59;2089074;28;45951;-68
2023/04/27 00:52:30;;;;;;;;;11.25;11.25;;;;;15.10;54.26;101142.53;2089106;28;45657;-70
2023/04/27 00:53:31;;;;;;;;;8.80;8.80;;;;;15.11;54.66;101138.06;2087421;28;45680;-70
2023/04/27 00:54:32;;;;;;;;;11.60;11.20;;;;;15.10;54.43;101136.31;2088537;28;46485;-69
2023/04/27 00:55:33;;;;;;;;;10.80;9.80;;;;;15.09;54.68;101138.13;2088460;28;45340;-69
2023/04/27 00:56:33;;;;;;;;;13.20;11.40;;;;;15.08;54.89;101136.38;2098187;28;46026;-69
2023/04/27 00:57:34;;;;;;;;;12.00;12.00;;;;;15.08;54.54;101133.69;2096571;28;46049;-69
2023/04/27 00:58:35;;;;;;;;;12.50;11.00;;;;;15.07;54.96;101134.63;2096137;28;45927;-70
2023/04/27 00:59:35;;;;;;;;;12.50;12.50;;;;;15.07;54.89;101136.44;2089451;28;45315;-68
2023/04/27 01:00:36;;;;;;;;;13.00;12.00;;;;;15.07;55.00;101128.41;2087930;28;45859;-68
2023/04/27 01:01:36;;;;;;;;;10.75;10.75;;;;;15.07;54.91;101136.44;2088647;28;45788;-70
2023/04/27 01:02:37;;;;;;;;;13.25;13.25;;;;;15.08;54.73;101132.81;2088674;28;45051;-69
2023/04/27 01:03:37;;;;;;;;;13.80;13.80;;;;;15.06;55.00;101126.66;2088770;28;46475;-70
2023/04/27 01:04:38;;;;;;;;;13.00;13.00;;;;;15.06;54.62;101137.34;2088307;28;46665;-69
2023/04/27 01:05:39;;;;;;;;;11.25;9.00;;;;;15.06;54.73;101140.03;2088538;28;46460;-69
2023/04/27 01:06:39;;;;;;;;;11.00;11.00;;;;;15.06;54.57;101137.34;2096010;28;46472;-68
2023/04/27 01:07:40;;;;;;;;;13.50;11.50;;;;;15.06;54.63;101135.56;2093483;28;45708;-68
2023/04/27 01:08:40;;;;;;;;;13.75;12.00;;;;;15.06;54.75;101140.03;2088839;28;46038;-69
2023/04/27 01:09:41;;;;;;;;;13.00;12.00;;;;;15.06;54.86;101134.69;2088522;28;45979;-69
2023/04/27 01:10:41;;;;;;;;;14.00;14.00;;;;;15.05;54.93;101130.25;2087890;28;46066;-68
2023/04/27 01:11:42;;;;;;;;;13.75;13.00;;;;;15.05;55.15;101133.81;2088401;28;46257;-70
2023/04/27 01:12:42;;;;;;;;;13.75;13.50;;;;;15.06;55.34;101129.34;2088941;28;45197;-69
2023/04/27 01:13:43;;;;;;;;;10.00;10.00;;;;;15.05;55.24;101130.25;2088901;28;45941;-69
2023/04/27 01:14:43;;;;;;;;;19.00;15.75;;;;;15.03;55.15;101133.00;2088443;28;45644;-70
2023/04/27 01:15:44;;;;;;;;;19.50;17.00;;;;;15.02;55.16;101128.56;2089906;28;46357;-69
2023/04/27 01:16:45;;;;;;;;;20.00;17.25;;;;;15.04;55.25;101128.53;2097036;28;45742;-70
2023/04/27 01:17:46;;;;;;;;;29.50;28.75;;;;;15.04;55.50;101133.88;2091852;28;46221;-70
2023/04/27 01:18:46;;;;;;;;;32.60;28.60;;;;;15.02;55.28;101131.25;2088662;28;45430;-70
2023/04/27 01:19:47;;;;;;;;;37.50;32.50;;;;;15.01;55.00;101129.50;2094549;28;46382;-69
2023/04/27 01:20:47;;;;;;;;;41.00;35.50;;;;;15.02;55.11;101125.91;2091067;28;45691;-69
2023/04/27 01:21:48;;;;;;;;;47.25;39.00;;;;;15.01;55.26;101132.19;2104607;28;46346;-70
2023/04/27 01:22:48;;;;;;;;;53.50;43.75;;;;;15.01;55.11;101137.53;2088743;28;46142;-68
2023/04/27 01:23:49;;;;;;;;;51.75;43.00;;;;;15.01;55.34;101138.38;2088558;28;45560;-67
2023/04/27 01:24:49;;;;;;;;;54.50;45.00;;;;;15.01;55.23;101137.53;2088291;28;45674;-70
2023/04/27 01:25:49;;;;;;;;;56.00;45.25;;;;;15.00;55.30;101138.44;2088442;28;45785;-68
2023/04/27 01:26:52;;;;;;;;;57.50;47.25;;;;;14.99;55.15;101134.91;2088375;28;46803;-69
2023/04/27 01:27:53;;;;;;;;;54.40;45.40;;;;;14.99;55.06;101137.56;2085469;28;44992;-69
2023/04/27 01:28:53;;;;;;;;;61.00;48.25;;;;;14.98;55.43;101133.13;2088192;28;46128;-70
2023/04/27 01:29:54;;;;;;;;;60.75;47.75;;;;;14.99;55.52;101142.91;2087917;28;46461;-69
2023/04/27 01:30:54;;;;;;;;;60.50;49.00;;;;;14.99;55.26;101140.25;2088044;28;47415;-70
2023/04/27 01:31:54;;;;;;;;;60.75;48.50;;;;;14.97;55.69;101147.41;2088028;28;46467;-69
2023/04/27 01:32:55;;;;;;;;;60.75;48.75;;;;;14.99;55.31;101144.69;2088695;28;46384;-69
2023/04/27 01:33:55;;;;;;;;;60.25;47.25;;;;;14.98;55.35;101145.63;2088278;28;45982;-69
2023/04/27 01:34:56;;;;;;;;;55.50;45.75;;;;;14.99;55.60;101139.34;2088381;28;46411;-70
2023/04/27 01:35:56;;;;;;;;;57.25;47.00;;;;;14.99;55.95;101148.25;2088043;28;44943;-70
2023/04/27 01:36:57;;;;;;;;;55.00;44.50;;;;;15.00;55.26;101146.47;2088269;28;45902;-69
2023/04/27 01:37:57;;;;;;;;;64.75;51.50;;;;;15.00;55.54;101138.44;2088710;28;45727;-69
2023/04/27 01:38:58;;;;;;;;;57.00;46.00;;;;;14.99;55.43;101142.00;2088508;28;45930;-70
2023/04/27 01:39:58;;;;;;;;;61.25;48.00;;;;;15.00;55.68;101144.66;2088353;28;45597;-69
2023/04/27 01:41:00;;;;;;;;;56.00;44.50;;;;;14.99;55.83;101148.25;2088378;28;46294;-68
2023/04/27 01:42:02;;;;;;;;;60.20;48.40;;;;;14.99;55.75;101142.00;2088184;28;46341;-69
2023/04/27 01:43:02;;;;;;;;;63.00;50.20;;;;;14.98;55.82;101137.59;2088051;28;47362;-69
2023/04/27 01:44:03;;;;;;;;;60.50;48.25;;;;;14.98;55.44;101135.78;2102014;28;48317;-68
2023/04/27 01:45:04;;;;;;;;;59.25;47.25;;;;;14.98;55.85;101134.94;2103270;28;47437;-68
2023/04/27 01:46:13;;;;;;;;;61.00;48.50;;;;;14.98;55.77;101130.44;2104071;28;47114;-69
2023/04/27 01:47:16;;;;;;;;;59.80;49.20;;;;;14.99;55.58;101128.66;2094892;28;46279;-69
2023/04/27 01:48:16;;;;;;;;;60.40;47.60;;;;;15.00;56.00;101130.44;2095241;28;48050;-69
2023/04/27 01:49:17;;;;;;;;;60.00;47.50;;;;;15.00;55.78;101136.66;2103952;28;44885;-68
2023/04/27 01:50:17;;;;;;;;;59.50;48.00;;;;;15.01;55.62;101130.38;2103800;28;45829;-68
2023/04/27 01:51:18;;;;;;;;;60.25;47.75;;;;;15.02;55.94;101128.56;2103543;28;45573;-69
2023/04/27 01:52:19;;;;;;;;;57.40;47.20;;;;;15.02;55.82;101123.22;2094573;28;46605;-70
2023/04/27 01:53:19;;;;;;;;;52.50;42.75;;;;;15.04;55.50;101123.16;2098294;28;45728;-69
2023/04/27 01:54:19;;;;;;;;;55.75;45.00;;;;;15.01;55.79;101122.34;2095335;28;46064;-70
2023/04/27 01:55:20;;;;;;;;;58.00;46.75;;;;;15.02;55.98;101115.22;2094246;28;46167;-70
2023/04/27 01:56:20;;;;;;;;;47.50;40.50;;;;;15.02;55.98;101124.09;2102711;28;46084;-68
2023/04/27 01:57:21;;;;;;;;;48.25;40.50;;;;;15.02;56.03;101116.09;2103848;28;45446;-70
2023/04/27 01:58:21;;;;;;;;;48.75;41.00;;;;;15.02;56.03;101115.22;2095648;28;45469;-69
2023/04/27 01:59:21;;;;;;;;;49.25;41.00;;;;;15.01;55.65;101113.47;2095520;28;46321;-70
2023/04/27 02:00:22;;;;;;;;;48.25;39.25;;;;;15.01;55.83;101114.34;2102973;28;45681;-69
2023/04/27 02:01:22;;;;;;;;;45.75;39.00;;;;;15.00;55.84;101115.25;2101690;28;46978;-68
2023/04/27 02:02:22;;;;;;;;;48.00;39.75;;;;;15.01;55.74;101113.47;2103889;28;46253;-69
2023/04/27 02:03:23;;;;;;;;;48.75;40.50;;;;;15.00;55.69;101111.72;2102013;28;46563;-69
2023/04/27 02:04:23;;;;;;;;;51.00;41.00;;;;;15.00;55.56;101111.72;2102530;28;47591;-70
2023/04/27 02:05:23;;;;;;;;;51.50;43.25;;;;;14.99;55.70;101116.19;2104223;28;46026;-70
2023/04/27 02:06:24;;;;;;;;;52.50;43.25;;;;;14.99;56.00;101115.28;2102877;28;46190;-70
2023/04/27 02:07:25;;;;;;;;;59.50;49.00;;;;;14.97;55.72;101112.66;2095523;28;46495;-69
2023/04/27 02:08:25;;;;;;;;;59.00;48.25;;;;;14.95;56.03;101109.19;2086325;28;46464;-69
2023/04/27 02:09:25;;;;;;;;;64.50;51.00;;;;;14.95;55.91;101116.31;2094275;28;46670;-69
2023/04/27 02:10:26;;;;;;;;;60.25;49.00;;;;;14.94;55.72;101114.59;2098080;28;46571;-69
2023/04/27 02:11:26;;;;;;;;;62.00;50.25;;;;;14.93;56.29;101111.03;2095771;28;46519;-69
2023/04/27 02:12:26;;;;;;;;;66.75;52.50;;;;;14.92;56.12;101117.31;2095571;28;46607;-68
2023/04/27 02:13:27;;;;;;;;;54.25;45.25;;;;;14.91;55.66;101112.91;2086728;28;46729;-69
2023/04/27 02:14:27;;;;;;;;;63.00;50.25;;;;;14.91;56.20;101114.69;2087103;28;47243;-68
2023/04/27 02:15:27;;;;;;;;;63.00;50.75;;;;;14.89;55.83;101112.06;2093926;28;45911;-69
2023/04/27 02:16:28;;;;;;;;;61.25;49.75;;;;;14.89;56.15;101109.41;2087685;28;47229;-69
2023/04/27 02:17:30;;;;;;;;;58.25;47.25;;;;;14.89;55.95;101112.06;2087993;28;45231;-69
2023/04/27 02:18:31;;;;;;;;;51.80;43.00;;;;;14.90;55.74;101108.47;2086959;28;45703;-69
2023/04/27 02:19:31;;;;;;;;;48.20;40.00;;;;;14.90;56.01;101110.28;2087581;28;46681;-68
2023/04/27 02:20:32;;;;;;;;;44.50;38.00;;;;;14.89;55.64;101114.75;2090610;28;45780;-69
2023/04/27 02:21:32;;;;;;;;;39.50;33.50;;;;;14.90;56.05;101112.94;2099175;28;46245;-69
2023/04/27 02:22:33;;;;;;;;;36.00;32.25;;;;;14.89;55.60;101112.06;2087768;28;46785;-68
2023/04/27 02:23:34;;;;;;;;;31.75;29.50;;;;;14.90;55.42;101118.28;2088210;28;45602;-68
2023/04/27 02:24:35;;;;;;;;;26.60;25.80;;;;;14.89;55.31;101109.41;2087965;28;45859;-68
2023/04/27 02:25:37;;;;;;;;;27.75;27.75;;;;;14.87;55.75;101107.72;2088348;28;45385;-68
2023/04/27 02:26:37;;;;;;;;;28.00;27.00;;;;;14.86;55.52;101109.47;2087603;28;46526;-68
2023/04/27 02:27:38;;;;;;;;;26.50;24.75;;;;;14.88;55.40;101115.69;2088029;28;46505;-69
2023/04/27 02:28:38;;;;;;;;;24.80;24.00;;;;;14.85;55.66;101115.75;2088351;28;46361;-69
2023/04/27 02:29:39;;;;;;;;;24.75;23.50;;;;;14.84;55.84;101111.34;2087959;28;45621;-69
2023/04/27 02:30:39;;;;;;;;;23.75;22.25;;;;;14.83;55.69;101112.25;2088138;28;46411;-68
2023/04/27 02:31:40;;;;;;;;;22.50;22.50;;;;;14.83;55.60;101114.94;2087597;28;45998;-68
2023/04/27 02:32:40;;;;;;;;;24.00;24.00;;;;;14.83;55.57;101112.25;2088254;28;46118;-69
2023/04/27 02:33:41;;;;;;;;;22.00;22.00;;;;;14.84;55.48;101118.47;2087259;28;46388;-70
2023/04/27 02:34:41;;;;;;;;;23.50;22.00;;;;;14.82;55.76;101120.34;2090931;28;46558;-70
2023/04/27 02:35:41;;;;;;;;;19.75;19.25;;;;;14.81;55.47;101119.47;2089571;28;45603;-70
2023/04/27 02:36:42;;;;;;;;;16.25;15.75;;;;;14.80;55.90;101122.19;2090506;28;45826;-70
2023/04/27 02:37:42;;;;;;;;;20.50;18.75;;;;;14.80;55.51;101120.38;2088088;28;46703;-70
2023/04/27 02:38:42;;;;;;;;;21.50;19.25;;;;;14.79;55.56;101120.44;2087394;28;46879;-68
2023/04/27 02:39:43;;;;;;;;;19.75;17.75;;;;;14.78;55.40;101122.25;2091248;28;45580;-68
2023/04/27 02:40:43;;;;;;;;;17.50;16.50;;;;;14.77;55.30;101125.84;2087640;28;46157;-69
2023/04/27 02:41:43;;;;;;;;;15.50;15.25;;;;;14.77;55.54;101128.50;2087368;28;46319;-69
2023/04/27 02:42:44;;;;;;;;;17.25;15.75;;;;;14.78;55.70;101124.91;2087729;28;45225;-69
2023/04/27 02:43:45;;;;;;;;;16.50;16.00;;;;;14.76;56.05;101125.88;2088109;28;46234;-69
2023/04/27 02:44:46;;;;;;;;;18.80;15.60;;;;;14.77;55.96;101124.97;2096455;28;45241;-70
2023/04/27 02:45:46;;;;;;;;;18.00;17.75;;;;;14.76;55.60;101121.41;2095349;28;46224;-69
2023/04/27 02:46:46;;;;;;;;;13.50;12.50;;;;;14.76;56.08;101124.09;2087414;28;46360;-69
2023/04/27 02:47:47;;;;;;;;;19.50;19.50;;;;;14.75;56.03;101124.16;2087432;28;45181;-69
2023/04/27 02:48:48;;;;;;;;;14.00;14.00;;;;;14.74;55.26;101123.28;2095889;28;46318;-70
2023/04/27 02:49:48;;;;;;;;;15.25;14.25;;;;;14.75;55.99;101125.00;2095798;28;45203;-70
2023/04/27 02:50:48;;;;;;;;;18.00;17.00;;;;;14.75;55.61;101127.69;2087180;28;46344;-70
2023/04/27 02:51:49;;;;;;;;;19.25;16.50;;;;;14.75;56.01;101129.50;2087500;28;45447;-68
2023/04/27 02:52:49;;;;;;;;;15.25;14.75;;;;;14.75;55.78;101125.00;2095120;28;46598;-69
2023/04/27 02:53:52;;;;;;;;;14.50;14.50;;;;;14.76;55.85;101124.09;2087156;28;46786;-68
2023/04/27 02:54:52;;;;;;;;;16.00;15.40;;;;;14.76;55.81;101121.41;2087247;28;45040;-69
2023/04/27 02:55:52;;;;;;;;;15.25;13.75;;;;;14.76;55.79;101118.75;2087939;28;46825;-69
2023/04/27 02:56:53;;;;;;;;;11.25;11.25;;;;;14.75;55.72;101125.00;2088018;28;46111;-68
2023/04/27 02:57:53;;;;;;;;;14.75;14.75;;;;;14.76;55.73;101123.22;2087781;28;45550;-69
2023/04/27 02:58:53;;;;;;;;;14.25;14.25;;;;;14.75;56.04;101129.50;2087219;28;46812;-68
2023/04/27 02:59:53;;;;;;;;;17.25;16.00;;;;;14.73;56.17;101124.16;2095787;28;45504;-69
2023/04/27 03:00:55;;;;;;;;;14.00;14.00;;;;;14.72;55.72;101122.41;2077523;28;45815;-69
2023/04/27 03:01:55;;;;;;;;;18.40;17.20;;;;;14.72;55.96;101125.97;2086754;28;45746;-68
2023/04/27 03:02:55;;;;;;;;;16.25;14.25;;;;;14.71;55.84;101129.56;2082324;28;46247;-69
2023/04/27 03:03:56;;;;;;;;;15.75;15.25;;;;;14.71;56.18;101129.56;2078412;28;46183;-69
2023/04/27 03:04:58;;;;;;;;;16.25;15.25;;;;;14.70;56.27;101130.47;2078630;28;46460;-69
2023/04/27 03:05:58;;;;;;;;;15.60;14.40;;;;;14.69;56.07;101128.75;2077895;28;47960;-69
2023/04/27 03:06:58;;;;;;;;;14.25;14.25;;;;;14.68;56.14;101127.00;2070439;28;47096;-69
2023/04/27 03:07:58;;;;;;;;;16.50;15.50;;;;;14.68;55.97;101129.66;2076590;28;48132;-68
2023/04/27 03:08:59;;;;;;;;;14.25;14.25;;;;;14.68;56.23;101131.47;2078293;28;46777;-69
2023/04/27 03:09:59;;;;;;;;;16.25;15.50;;;;;14.67;55.96;101129.72;2073583;28;45501;-69
2023/04/27 03:11:00;;;;;;;;;17.75;16.25;;;;;14.68;56.03;101134.13;2066220;28;45048;-69
2023/04/27 03:12:01;;;;;;;;;15.00;15.00;;;;;14.67;56.05;101133.25;2078688;28;46865;-68
2023/04/27 03:13:02;;;;;;;;;17.40;16.80;;;;;14.69;56.58;101133.22;2082737;28;48333;-68
2023/04/27 03:14:03;;;;;;;;;15.75;13.50;;;;;14.67;55.95;101125.25;2084452;28;45449;-68
2023/04/27 03:15:03;;;;;;;;;14.25;14.25;;;;;14.68;56.31;101128.78;2069765;28;46783;-69
2023/04/27 03:16:04;;;;;;;;;12.25;10.50;;;;;14.67;56.40;101121.72;2073747;28;45578;-69
2023/04/27 03:17:04;;;;;;;;;16.50;16.50;;;;;14.68;56.41;101123.44;2085739;28;45212;-69
2023/04/27 03:18:05;;;;;;;;;13.50;13.50;;;;;14.67;56.29;101129.72;2078804;28;47073;-69
2023/04/27 03:19:06;;;;;;;;;12.75;12.75;;;;;14.66;56.08;101127.97;2080000;28;46168;-69
2023/04/27 03:20:08;;;;;;;;;15.75;15.75;;;;;14.65;56.00;101127.09;2086012;28;45359;-69
2023/04/27 03:21:10;;;;;;;;;13.20;13.20;;;;;14.66;56.46;101120.84;2078063;28;46022;-68
2023/04/27 03:22:11;;;;;;;;;15.80;15.80;;;;;14.66;56.36;101122.63;2078611;28;45341;-69
2023/04/27 03:23:11;;;;;;;;;9.00;9.00;;;;;14.65;56.51;101121.75;2078944;28;45550;-70
2023/04/27 03:24:11;;;;;;;;;16.00;16.00;;;;;14.66;56.08;101125.31;2082760;28;45985;-67
2023/04/27 03:25:12;;;;;;;;;16.50;16.25;;;;;14.64;56.40;101128.03;2085129;28;45945;-69
2023/04/27 03:26:13;;;;;;;;;14.50;14.50;;;;;14.64;56.03;101129.81;2086682;28;45660;-69
2023/04/27 03:27:14;;;;;;;;;15.40;15.00;;;;;14.63;56.30;101125.41;2083559;28;45662;-69
2023/04/27 03:28:14;;;;;;;;;17.00;16.25;;;;;14.62;56.51;101126.34;2085175;28;45646;-69
2023/04/27 03:29:15;;;;;;;;;15.50;14.25;;;;;14.61;56.02;101125.47;2075622;28;45565;-67
2023/04/27 03:30:15;;;;;;;;;15.25;15.25;;;;;14.61;56.46;101135.25;2075484;28;47673;-68
2023/04/27 03:31:15;;;;;;;;;15.00;13.50;;;;;14.62;56.06;101131.69;2078416;28;46093;-71
2023/04/27 03:32:16;;;;;;;;;11.50;11.50;;;;;14.61;55.98;101127.22;2080016;28;46929;-69
2023/04/27 03:33:17;;;;;;;;;14.00;14.00;;;;;14.61;56.31;101128.13;2087764;28;45990;-70
2023/04/27 03:34:19;;;;;;;;;12.80;12.80;;;;;14.61;56.17;101133.47;2087349;28;47158;-70
2023/04/27 03:35:20;;;;;;;;;15.00;15.00;;;;;14.61;56.04;101127.22;2087734;28;45704;-68
2023/04/27 03:36:20;;;;;;;;;16.25;13.50;;;;;14.61;56.17;101127.22;2087797;28;45435;-68
2023/04/27 03:37:21;;;;;;;;;16.00;16.00;;;;;14.61;56.30;101132.56;2087662;28;45974;-69
2023/04/27 03:38:21;;;;;;;;;18.50;17.50;;;;;14.59;56.42;101129.06;2088088;28;45669;-70
2023/04/27 03:39:22;;;;;;;;;16.75;14.00;;;;;14.58;56.18;101132.66;2087831;28;46051;-69
2023/04/27 03:40:22;;;;;;;;;15.50;14.75;;;;;14.58;56.73;101130.00;2087024;28;45069;-69
2023/04/27 03:41:22;;;;;;;;;12.75;12.75;;;;;14.59;56.50;101134.41;2086996;28;47888;-68
2023/04/27 03:42:23;;;;;;;;;15.50;15.00;;;;;14.58;56.48;101133.53;2087534;28;46198;-70
2023/04/27 03:43:24;;;;;;;;;15.00;13.75;;;;;14.58;56.34;101132.66;2087042;28;47367;-69
2023/04/27 03:44:24;;;;;;;;;12.20;12.20;;;;;14.57;56.50;101131.81;2087361;28;47518;-69
2023/04/27 03:45:25;;;;;;;;;16.50;15.25;;;;;14.56;56.09;101129.19;2087782;28;45080;-69
2023/04/27 03:46:25;;;;;;;;;18.25;16.50;;;;;14.55;56.41;101130.97;2087373;28;46078;-69
2023/04/27 03:47:25;;;;;;;;;16.25;14.50;;;;;14.54;56.36;101128.38;2087614;28;46808;-69
2023/04/27 03:48:26;;;;;;;;;16.00;14.50;;;;;14.54;56.58;101131.03;2087644;28;46589;-69
2023/04/27 03:49:26;;;;;;;;;15.25;14.75;;;;;14.53;56.53;101127.50;2087541;28;46684;-69
2023/04/27 03:50:27;;;;;;;;;16.50;14.50;;;;;14.54;56.47;101131.03;2087733;28;45887;-69
2023/04/27 03:51:27;;;;;;;;;17.75;15.50;;;;;14.53;56.47;101129.28;2087720;28;45549;-69
2023/04/27 03:52:27;;;;;;;;;15.25;15.00;;;;;14.52;56.58;101128.41;2088567;28;45597;-68
2023/04/27 03:53:28;;;;;;;;;12.50;12.50;;;;;14.52;56.69;101127.53;2089171;28;46134;-69
2023/04/27 03:54:30;;;;;;;;;16.50;14.75;;;;;14.50;56.43;101130.25;2089085;28;45804;-69
2023/04/27 03:55:30;;;;;;;;;15.40;14.40;;;;;14.51;56.64;101134.69;2088898;28;46723;-68
2023/04/27 03:56:31;;;;;;;;;16.25;15.25;;;;;14.52;56.58;101125.75;2088785;28;45716;-69
2023/04/27 03:57:31;;;;;;;;;18.00;15.25;;;;;14.51;56.38;101123.13;2089060;28;45854;-68
2023/04/27 03:58:32;;;;;;;;;14.00;13.25;;;;;14.52;56.37;101127.53;2088881;28;46143;-69
2023/04/27 03:59:32;;;;;;;;;13.00;13.00;;;;;14.54;56.92;101128.38;2094409;28;45505;-68
2023/04/27 04:00:33;;;;;;;;;13.00;13.00;;;;;14.52;56.46;101123.06;2086727;28;45615;-68
2023/04/27 04:01:33;;;;;;;;;15.25;15.25;;;;;14.53;56.76;101123.94;2082350;28;45197;-70
2023/04/27 04:02:33;;;;;;;;;15.00;14.25;;;;;14.52;56.81;101123.06;2085017;28;46351;-69
2023/04/27 04:03:35;;;;;;;;;19.25;16.25;;;;;14.52;56.54;101117.72;2088571;28;45395;-70
2023/04/27 04:04:35;;;;;;;;;13.60;11.80;;;;;14.51;56.45;101118.66;2088309;28;46650;-69
2023/04/27 04:05:35;;;;;;;;;15.75;14.00;;;;;14.50;56.20;101118.72;2088971;28;45819;-70
2023/04/27 04:06:36;;;;;;;;;16.25;14.50;;;;;14.49;56.72;101120.50;2096955;28;45965;-70
2023/04/27 04:07:36;;;;;;;;;16.00;16.00;;;;;14.50;56.84;101119.59;2096710;28;45412;-67
2023/04/27 04:08:37;;;;;;;;;15.25;15.25;;;;;14.51;56.30;101120.44;2088889;28;48414;-70
2023/04/27 04:09:37;;;;;;;;;13.50;13.50;;;;;14.50;56.55;101127.59;2089083;28;46357;-70
2023/04/27 04:10:38;;;;;;;;;16.25;16.25;;;;;14.51;56.67;101123.13;2088296;28;47050;-70
2023/04/27 04:11:38;;;;;;;;;14.50;13.75;;;;;14.51;56.40;101131.13;2089012;28;46987;-69
2023/04/27 04:12:38;;;;;;;;;14.00;14.00;;;;;14.51;56.78;101128.47;2089323;28;46687;-69
2023/04/27 04:13:40;;;;;;;;;16.25;15.75;;;;;14.51;56.63;101126.66;2087996;28;46506;-69
2023/04/27 04:14:41;;;;;;;;;11.60;11.60;;;;;14.51;56.45;101128.47;2088757;28;45620;-68
2023/04/27 04:15:41;;;;;;;;;17.40;16.60;;;;;14.51;56.42;101129.34;2105106;28;45492;-68
2023/04/27 04:16:42;;;;;;;;;15.50;15.50;;;;;14.51;56.47;101125.78;2100957;28;46641;-68
2023/04/27 04:17:42;;;;;;;;;16.00;14.75;;;;;14.51;56.57;101126.66;2085894;28;46728;-70
2023/04/27 04:18:43;;;;;;;;;16.00;15.00;;;;;14.52;56.82;101120.41;2088112;28;45027;-68
2023/04/27 04:19:43;;;;;;;;;17.25;16.00;;;;;14.52;56.46;101119.53;2087437;28;45277;-68
2023/04/27 04:20:44;;;;;;;;;14.00;14.00;;;;;14.51;56.72;101117.78;2088068;28;46027;-69
2023/04/27 04:21:44;;;;;;;;;12.50;12.50;;;;;14.51;56.70;101124.00;2094096;28;45300;-69
2023/04/27 04:22:44;;;;;;;;;16.50;15.50;;;;;14.51;56.61;101115.97;2101066;28;46398;-68
2023/04/27 04:23:45;;;;;;;;;15.25;14.75;;;;;14.51;56.67;101123.13;2105468;28;45482;-70
2023/04/27 04:24:46;;;;;;;;;15.25;15.25;;;;;14.50;56.82;101127.59;2089760;28;44993;-70
2023/04/27 04:25:49;;;;;;;;;17.60;17.20;;;;;14.49;56.57;101122.31;2079678;28;46817;-70
2023/04/27 04:26:50;;;;;;;;;14.80;14.00;;;;;14.48;56.53;101125.88;2095857;28;45931;-68
2023/04/27 04:27:50;;;;;;;;;16.00;15.00;;;;;14.47;56.60;101127.66;2091129;28;46048;-69
2023/04/27 04:28:51;;;;;;;;;17.75;16.50;;;;;14.47;56.80;101121.44;2089144;28;45657;-69
2023/04/27 04:29:51;;;;;;;;;15.00;13.75;;;;;14.46;56.94;101122.38;2089225;28;45560;-69
2023/04/27 04:30:52;;;;;;;;;17.00;15.00;;;;;14.47;56.80;101124.13;2088094;28;46533;-69
2023/04/27 04:31:52;;;;;;;;;17.25;16.00;;;;;14.47;56.51;101130.34;2088894;28;47117;-68
2023/04/27 04:32:54;;;;;;;;;15.25;13.25;;;;;14.47;56.58;101135.69;2088601;28;46571;-69
2023/04/27 04:33:54;;;;;;;;;14.60;14.60;;;;;14.47;56.91;101134.81;2096461;28;46089;-68
2023/04/27 04:34:55;;;;;;;;;17.00;16.25;;;;;14.47;56.85;101133.00;2096702;28;44992;-68
2023/04/27 04:35:55;;;;;;;;;19.00;16.25;;;;;14.47;56.69;101135.69;2091375;28;45466;-69